createdAt,value
2023-01-13T00:00:20.495Z,5.68
2023-01-13T00:02:47.923Z,5.30
2023-01-13T00:05:14.894Z,5.68
2023-01-13T00:07:41.816Z,5.57
2023-01-13T00:10:10.809Z,5.55
2023-01-13T00:12:44.231Z,4.93
2023-01-13T00:15:11.759Z,5.10
2023-01-13T00:17:39.359Z,4.90
2023-01-13T00:20:07.292Z,4.50
2023-01-13T00:22:35.339Z,4.15
2023-01-13T00:25:04.655Z,4.47
2023-01-13T00:27:31.930Z,4.53
2023-01-13T00:29:59.048Z,3.70
2023-01-13T00:32:26.012Z,4.65
2023-01-13T00:34:53.123Z,4.65
2023-01-13T00:37:20.196Z,4.03
2023-01-13T00:39:47.148Z,4.63
2023-01-13T00:42:32.807Z,4.18
2023-01-13T00:44:59.678Z,4.53
2023-01-13T00:47:26.613Z,3.70
2023-01-13T00:49:53.511Z,3.70
2023-01-13T00:52:20.432Z,3.38
2023-01-13T00:54:47.333Z,3.70
2023-01-13T00:57:15.624Z,3.63
2023-01-13T00:59:42.517Z,3.67
2023-01-13T01:02:09.475Z,3.88
2023-01-13T01:04:36.558Z,3.78
2023-01-13T01:07:03.447Z,4.10
2023-01-13T01:09:33.656Z,4.13
2023-01-13T01:12:01.255Z,4.28
2023-01-13T01:14:28.648Z,3.88
2023-01-13T01:16:55.601Z,3.22
2023-01-13T01:19:22.495Z,3.92
2023-01-13T01:21:49.404Z,4.15
2023-01-13T01:24:16.957Z,3.95
2023-01-13T01:26:43.877Z,3.90
2023-01-13T01:29:14.334Z,4.20
2023-01-13T01:31:41.242Z,3.72
2023-01-13T01:34:08.163Z,3.70
2023-01-13T01:36:36.492Z,3.90
2023-01-13T01:39:05.138Z,3.88
2023-01-13T01:41:34.651Z,3.20
2023-01-13T01:44:08.413Z,4.32
2023-01-13T01:46:43.717Z,3.10
2023-01-13T01:49:33.929Z,3.80
2023-01-13T01:52:13.587Z,4.03
2023-01-13T01:55:03.495Z,3.50
2023-01-13T01:57:56.680Z,3.40
2023-01-13T02:00:24.583Z,3.72
2023-01-13T02:02:52.744Z,2.95
2023-01-13T02:05:19.934Z,3.35
2023-01-13T02:07:49.718Z,3.78
2023-01-13T02:10:22.492Z,3.58
2023-01-13T02:12:50.894Z,3.20
2023-01-13T02:15:49.922Z,3.30
2023-01-13T02:18:24.046Z,2.85
2023-01-13T02:21:12.722Z,2.92
2023-01-13T02:24:22.242Z,2.65
2023-01-13T02:27:23.921Z,2.83
2023-01-13T02:30:31.327Z,3.15
2023-01-13T02:33:26.308Z,3.17
2023-01-13T02:36:11.357Z,2.75
2023-01-13T02:38:51.409Z,3.38
2023-01-13T02:41:47.650Z,2.88
2023-01-13T02:44:20.716Z,2.83
2023-01-13T02:46:54.139Z,2.80
2023-01-13T02:49:41.423Z,3.30
2023-01-13T02:52:32.528Z,3.00
2023-01-13T02:55:05.443Z,2.72
2023-01-13T02:57:35.634Z,2.83
2023-01-13T03:00:06.213Z,2.45
2023-01-13T03:02:33.147Z,2.95
2023-01-13T03:05:01.157Z,2.88
2023-01-13T03:07:45.081Z,2.30
2023-01-13T03:10:36.292Z,2.95
2023-01-13T03:13:25.408Z,2.67
2023-01-13T03:15:58.523Z,2.70
2023-01-13T03:18:52.910Z,2.53
2023-01-13T03:21:57.170Z,2.80
2023-01-13T03:24:45.029Z,2.60
2023-01-13T03:27:21.134Z,2.42
2023-01-13T03:30:16.024Z,2.60
2023-01-13T03:32:46.793Z,2.72
2023-01-13T03:35:25.100Z,4.07
2023-01-13T03:38:07.118Z,2.90
2023-01-13T03:40:40.706Z,2.63
2023-01-13T03:43:31.766Z,2.45
2023-01-13T03:46:06.855Z,2.70
2023-01-13T03:48:36.817Z,2.17
2023-01-13T03:51:10.126Z,2.45
2023-01-13T03:53:43.810Z,2.80
2023-01-13T03:56:17.880Z,2.53
2023-01-13T03:58:48.359Z,2.42
2023-01-13T04:01:37.339Z,2.25
2023-01-13T04:04:08.426Z,2.60
2023-01-13T04:06:47.280Z,1.70
2023-01-13T04:09:22.896Z,2.42
2023-01-13T04:11:56.520Z,3.00
2023-01-13T04:14:27.983Z,2.92
2023-01-13T04:16:55.413Z,4.30
2023-01-13T04:19:22.480Z,3.25
2023-01-13T04:21:49.299Z,3.00
2023-01-13T04:24:16.171Z,2.80
2023-01-13T04:26:42.928Z,2.80
2023-01-13T04:29:09.718Z,3.40
2023-01-13T04:31:37.046Z,4.47
2023-01-13T04:34:03.933Z,3.10
2023-01-13T04:36:30.793Z,3.20
2023-01-13T04:38:57.658Z,2.40
2023-01-13T04:41:24.421Z,2.80
2023-01-13T04:43:51.148Z,3.03
2023-01-13T04:46:17.972Z,3.58
2023-01-13T04:48:44.813Z,2.92
2023-01-13T04:51:11.657Z,2.92
2023-01-13T04:53:38.404Z,3.28
2023-01-13T04:56:05.521Z,2.70
2023-01-13T04:58:32.305Z,3.10
2023-01-13T05:00:59.159Z,2.47
2023-01-13T05:03:26.906Z,2.80
2023-01-13T05:05:53.742Z,2.90
2023-01-13T05:08:20.674Z,2.83
2023-01-13T05:10:47.420Z,3.22
2023-01-13T05:13:32.675Z,4.63
2023-01-13T05:16:24.014Z,6.75
2023-01-13T05:18:50.965Z,4.93
2023-01-13T05:21:36.235Z,3.90
2023-01-13T05:24:21.679Z,3.20
2023-01-13T05:26:48.968Z,3.03
2023-01-13T05:29:15.823Z,2.88
2023-01-13T05:31:45.777Z,3.10
2023-01-13T05:34:17.951Z,3.30
2023-01-13T05:36:44.713Z,4.00
2023-01-13T05:39:11.484Z,3.92
2023-01-13T05:41:56.706Z,3.60
2023-01-13T05:44:23.547Z,4.38
2023-01-13T05:46:50.364Z,3.58
2023-01-13T05:49:17.317Z,2.95
2023-01-13T05:51:44.151Z,3.10
2023-01-13T05:54:10.952Z,3.00
2023-01-13T05:56:37.721Z,3.13
2023-01-13T05:59:04.963Z,3.13
2023-01-13T06:01:31.820Z,3.22
2023-01-13T06:03:58.669Z,2.67
2023-01-13T06:06:25.520Z,2.30
2023-01-13T06:08:52.302Z,2.63
2023-01-13T06:11:19.075Z,2.88
2023-01-13T06:13:45.919Z,2.90
2023-01-13T06:16:12.892Z,2.92
2023-01-13T06:18:39.700Z,2.92
2023-01-13T06:21:06.609Z,2.38
2023-01-13T06:23:35.412Z,2.75
2023-01-13T06:26:14.659Z,2.13
2023-01-13T06:28:41.587Z,2.30
2023-01-13T06:31:10.446Z,2.35
2023-01-13T06:33:46.078Z,2.03
2023-01-13T06:36:19.215Z,2.92
2023-01-13T06:38:50.062Z,2.70
2023-01-13T06:41:17.429Z,2.78
2023-01-13T06:43:44.379Z,3.55
2023-01-13T06:46:11.375Z,3.20
2023-01-13T06:48:38.235Z,3.47
2023-01-13T06:51:05.503Z,2.80
2023-01-13T06:53:32.619Z,3.40
2023-01-13T06:55:59.482Z,2.85
2023-01-13T06:58:26.352Z,4.22
2023-01-13T07:00:53.743Z,3.30
2023-01-13T07:03:20.657Z,2.83
2023-01-13T07:05:55.471Z,3.50
2023-01-13T07:08:24.147Z,2.55
2023-01-13T07:10:51.606Z,3.25
2023-01-13T07:13:37.481Z,3.42
2023-01-13T07:16:06.411Z,3.92
2023-01-13T07:18:35.077Z,3.85
2023-01-13T07:21:04.455Z,4.10
2023-01-13T07:23:33.660Z,3.92
2023-01-13T07:26:01.175Z,3.88
2023-01-13T07:28:29.914Z,3.72
2023-01-13T07:30:57.676Z,4.10
2023-01-13T07:33:24.587Z,4.93
2023-01-13T07:35:59.439Z,5.10
2023-01-13T07:38:27.138Z,6.28
2023-01-13T07:40:54.246Z,5.45
2023-01-13T07:43:33.603Z,6.68
2023-01-13T07:46:03.179Z,5.85
2023-01-13T07:48:31.458Z,6.43
2023-01-13T07:51:06.062Z,5.30
2023-01-13T07:53:33.544Z,5.57
2023-01-13T07:56:00.914Z,5.20
2023-01-13T07:58:29.228Z,6.10
2023-01-13T08:00:57.460Z,12.20
2023-01-13T08:03:25.163Z,10.90
2023-01-13T08:05:52.174Z,7.35
2023-01-13T08:08:19.248Z,12.07
2023-01-13T08:10:46.007Z,11.35
2023-01-13T08:13:21.145Z,9.40
2023-01-13T08:15:53.274Z,7.78
2023-01-13T08:18:22.509Z,7.75
2023-01-13T08:20:52.476Z,7.47
2023-01-13T08:23:20.457Z,7.07
2023-01-13T08:25:47.602Z,5.95
2023-01-13T08:28:16.227Z,7.03
2023-01-13T08:30:43.474Z,8.40
2023-01-13T08:33:12.688Z,6.55
2023-01-13T08:35:40.727Z,6.13
2023-01-13T08:38:08.343Z,7.93
2023-01-13T08:40:35.619Z,7.22
2023-01-13T08:43:02.653Z,8.68
2023-01-13T08:45:29.691Z,8.80
2023-01-13T08:47:56.576Z,7.93
2023-01-13T08:50:23.481Z,5.03
2023-01-13T08:52:50.293Z,7.40
2023-01-13T08:55:17.333Z,5.90
2023-01-13T08:57:44.215Z,5.07
2023-01-13T09:00:11.552Z,10.10
2023-01-13T09:02:38.720Z,8.07
2023-01-13T09:05:10.159Z,5.43
2023-01-13T09:07:38.592Z,5.38
2023-01-13T09:10:06.709Z,5.65
2023-01-13T09:12:51.952Z,6.50
2023-01-13T09:15:19.333Z,6.03
2023-01-13T09:17:46.452Z,6.20
2023-01-13T09:20:14.331Z,6.13
2023-01-13T09:22:41.656Z,6.25
2023-01-13T09:25:09.015Z,6.75
2023-01-13T09:27:36.065Z,6.72
2023-01-13T09:30:02.906Z,6.20
2023-01-13T09:32:29.661Z,7.15
2023-01-13T09:35:02.594Z,7.78
2023-01-13T09:37:35.973Z,7.32
2023-01-13T09:40:08.037Z,6.72
2023-01-13T09:43:02.225Z,7.32
2023-01-13T09:45:36.918Z,7.88
2023-01-13T09:48:06.853Z,7.50
2023-01-13T09:51:00.087Z,7.95
2023-01-13T09:53:37.567Z,6.85
2023-01-13T09:56:05.321Z,6.68
2023-01-13T09:58:33.335Z,6.60
2023-01-13T10:01:24.159Z,6.20
2023-01-13T10:03:51.202Z,7.20
2023-01-13T10:06:21.998Z,7.07
2023-01-13T10:08:49.614Z,6.80
2023-01-13T10:11:40.969Z,7.32
2023-01-13T10:14:19.603Z,7.68
2023-01-13T10:17:19.459Z,8.05
2023-01-13T10:19:58.041Z,7.75
2023-01-13T10:22:32.652Z,7.50
2023-01-13T10:24:59.388Z,8.57
2023-01-13T10:27:36.789Z,8.95
2023-01-13T10:30:21.320Z,8.27
2023-01-13T10:32:55.139Z,8.43
2023-01-13T10:35:53.559Z,8.30
2023-01-13T10:38:23.955Z,7.75
2023-01-13T10:41:00.026Z,9.07
2023-01-13T10:43:29.192Z,7.85
2023-01-13T10:46:01.697Z,8.38
2023-01-13T10:48:44.172Z,7.85
2023-01-13T10:51:30.923Z,8.57
2023-01-13T10:54:14.217Z,8.23
2023-01-13T10:56:43.665Z,8.93
2023-01-13T10:59:23.679Z,8.00
2023-01-13T11:01:54.960Z,7.38
2023-01-13T11:04:37.546Z,7.88
2023-01-13T11:07:16.918Z,8.07
2023-01-13T11:09:43.809Z,8.70
2023-01-13T11:12:31.627Z,8.20
2023-01-13T11:15:02.364Z,8.18
2023-01-13T11:17:45.663Z,8.63
2023-01-13T11:20:12.373Z,8.25
2023-01-13T11:22:47.502Z,21.58
2023-01-13T11:25:23.209Z,12.02
2023-01-13T11:27:53.331Z,12.88
2023-01-13T11:30:26.401Z,10.70
2023-01-13T11:32:53.133Z,12.65
2023-01-13T11:35:22.011Z,9.88
2023-01-13T11:37:54.074Z,10.52
2023-01-13T11:40:39.034Z,9.68
2023-01-13T11:43:14.812Z,10.32
2023-01-13T11:45:46.348Z,10.43
2023-01-13T11:48:16.737Z,8.68
2023-01-13T11:51:07.951Z,10.07
2023-01-13T11:53:50.545Z,8.40
2023-01-13T11:57:18.310Z,8.32
2023-01-13T11:59:59.987Z,8.30
2023-01-13T12:02:58.187Z,8.68
2023-01-13T12:05:39.800Z,9.10
2023-01-13T12:08:18.519Z,8.82
2023-01-13T12:10:48.190Z,9.13
2023-01-13T12:13:53.650Z,11.75
2023-01-13T12:16:25.500Z,9.23
2023-01-13T12:19:19.779Z,9.88
2023-01-13T12:22:09.641Z,10.13
2023-01-13T12:24:46.980Z,10.48
2023-01-13T12:27:35.732Z,10.45
2023-01-13T12:30:13.590Z,10.95
2023-01-13T12:32:41.438Z,9.30
2023-01-13T12:35:37.897Z,10.43
2023-01-13T12:38:36.908Z,9.57
2023-01-13T12:41:19.257Z,11.77
2023-01-13T12:44:08.582Z,11.32
2023-01-13T12:46:43.907Z,11.70
2023-01-13T12:49:25.355Z,11.25
2023-01-13T12:51:52.069Z,10.45
2023-01-13T12:54:31.168Z,12.10
2023-01-13T12:56:59.189Z,10.07
2023-01-13T12:59:25.898Z,12.15
2023-01-13T13:02:13.065Z,11.35
2023-01-13T13:04:47.774Z,12.70
2023-01-13T13:07:38.415Z,10.52
2023-01-13T13:10:08.259Z,10.00
2023-01-13T13:13:12.530Z,11.23
2023-01-13T13:15:39.781Z,10.63
2023-01-13T13:18:24.971Z,12.43
2023-01-13T13:21:09.275Z,11.23
2023-01-13T13:24:03.197Z,11.68
2023-01-13T13:26:40.114Z,11.77
2023-01-13T13:29:44.260Z,11.93
2023-01-13T13:32:16.986Z,11.73
2023-01-13T13:34:59.829Z,12.30
2023-01-13T13:38:13.354Z,12.80
2023-01-13T13:41:02.782Z,11.80
2023-01-13T13:43:51.340Z,12.07
2023-01-13T13:46:48.077Z,13.30
2023-01-13T13:49:17.667Z,13.45
2023-01-13T13:51:59.801Z,13.45
2023-01-13T13:54:27.393Z,14.30
2023-01-13T13:56:54.340Z,14.73
2023-01-13T13:59:27.184Z,14.45
2023-01-13T14:02:01.554Z,15.10
2023-01-13T14:04:31.618Z,16.70
2023-01-13T14:07:18.895Z,14.40
2023-01-13T14:09:56.800Z,14.60
2023-01-13T14:12:26.438Z,16.58
2023-01-13T14:14:56.931Z,15.57
2023-01-13T14:17:29.241Z,17.90
2023-01-13T14:20:17.464Z,16.42
2023-01-13T14:22:49.264Z,15.75
2023-01-13T14:25:46.026Z,15.88
2023-01-13T14:28:32.543Z,16.35
2023-01-13T14:31:02.019Z,15.75
2023-01-13T14:33:47.039Z,14.38
2023-01-13T14:36:23.643Z,13.80
2023-01-13T14:39:14.971Z,15.20
2023-01-13T14:41:41.674Z,13.30
2023-01-13T14:44:17.082Z,13.88
2023-01-13T14:46:45.981Z,13.70
2023-01-13T14:49:29.274Z,15.60
2023-01-13T14:52:10.059Z,14.60
2023-01-13T14:54:44.431Z,17.40
2023-01-13T14:57:16.109Z,17.45
2023-01-13T15:02:31.213Z,14.48
2023-01-13T15:05:24.788Z,15.88
2023-01-13T15:08:11.738Z,15.23
2023-01-13T15:10:48.993Z,12.38
2023-01-13T15:13:26.460Z,13.93
2023-01-13T15:15:58.507Z,14.13
2023-01-13T15:18:25.443Z,14.55
2023-01-13T15:20:52.226Z,14.88
2023-01-13T15:23:20.232Z,14.88
2023-01-13T15:25:48.079Z,14.90
2023-01-13T15:28:20.199Z,15.32
2023-01-13T15:30:49.092Z,15.13
2023-01-13T15:33:17.019Z,14.90
2023-01-13T15:35:47.389Z,14.70
2023-01-13T15:38:17.790Z,16.15
2023-01-13T15:40:46.022Z,16.50
2023-01-13T15:43:36.698Z,16.42
2023-01-13T15:46:34.801Z,16.02
2023-01-13T15:49:18.839Z,17.77
2023-01-13T15:51:45.640Z,19.17
2023-01-13T15:54:12.863Z,19.02
2023-01-13T15:56:39.814Z,16.67
2023-01-13T15:59:14.606Z,17.52
2023-01-13T16:01:41.523Z,18.00
2023-01-13T16:04:10.032Z,15.57
2023-01-13T16:06:37.396Z,14.57
2023-01-13T16:09:05.728Z,13.85
2023-01-13T16:11:32.788Z,14.38
2023-01-13T16:13:59.952Z,13.45
2023-01-13T16:16:28.883Z,13.80
2023-01-13T16:18:56.782Z,13.40
2023-01-13T16:21:24.245Z,14.40
2023-01-13T16:23:52.259Z,15.30
2023-01-13T16:26:25.291Z,18.55
2023-01-13T16:28:55.283Z,15.27
2023-01-13T16:31:24.703Z,19.02
2023-01-13T16:33:52.663Z,14.02
2023-01-13T16:36:21.413Z,16.83
2023-01-13T16:38:49.744Z,15.40
2023-01-13T16:41:16.893Z,14.07
2023-01-13T16:43:43.949Z,15.82
2023-01-13T16:46:29.040Z,20.27
2023-01-13T16:49:01.510Z,113.13
2023-01-13T16:51:28.481Z,53.58
2023-01-13T16:53:55.452Z,21.20
2023-01-13T16:56:32.268Z,48.35
2023-01-13T16:59:03.770Z,16.13
2023-01-13T17:01:33.778Z,101.63
2023-01-13T17:04:01.297Z,47.88
2023-01-13T17:06:42.820Z,286.42
2023-01-13T17:09:18.339Z,531.63
2023-01-13T17:11:45.732Z,69.93
2023-01-13T17:14:18.319Z,64.72
2023-01-13T17:16:46.988Z,28.27
2023-01-13T17:19:14.373Z,40.08
2023-01-13T17:21:41.576Z,42.75
2023-01-13T17:24:09.880Z,44.70
2023-01-13T17:26:47.461Z,66.43
2023-01-13T17:29:23.162Z,30.67
2023-01-13T17:31:51.040Z,19.05
2023-01-13T17:34:19.222Z,28.27
2023-01-13T17:36:46.468Z,31.45
2023-01-13T17:39:22.213Z,16.75
2023-01-13T17:41:49.821Z,16.85
2023-01-13T17:44:19.441Z,69.13
2023-01-13T17:46:47.356Z,20.90
2023-01-13T17:49:16.028Z,21.35
2023-01-13T17:51:43.501Z,15.68
2023-01-13T17:54:12.509Z,25.30
2023-01-13T17:56:40.970Z,15.07
2023-01-13T17:59:10.467Z,15.27
2023-01-13T18:01:38.371Z,14.55
2023-01-13T18:04:07.017Z,14.07
2023-01-13T18:06:34.065Z,13.20
2023-01-13T18:09:00.916Z,13.40
2023-01-13T18:11:28.420Z,13.02
2023-01-13T18:13:57.149Z,14.90
2023-01-13T18:16:27.366Z,24.80
2023-01-13T18:19:20.527Z,19.38
2023-01-13T18:22:06.540Z,16.13
2023-01-13T18:24:52.674Z,14.65
2023-01-13T18:27:27.693Z,17.88
2023-01-13T18:29:59.044Z,16.02
2023-01-13T18:32:32.881Z,13.27
2023-01-13T18:35:05.797Z,13.60
2023-01-13T18:37:36.219Z,13.85
2023-01-13T18:40:04.628Z,13.48
2023-01-13T18:42:50.665Z,14.88
2023-01-13T18:45:35.721Z,39.67
2023-01-13T18:48:05.535Z,30.13
2023-01-13T18:50:34.831Z,37.20
2023-01-13T18:53:02.559Z,28.35
2023-01-13T18:55:30.827Z,47.53
2023-01-13T18:57:59.044Z,32.15
2023-01-13T19:00:27.702Z,45.05
2023-01-13T19:05:35.017Z,19.45
2023-01-13T19:08:02.965Z,27.10
2023-01-13T19:10:32.631Z,37.75
2023-01-13T19:13:01.565Z,43.47
2023-01-13T19:15:28.642Z,49.03
2023-01-13T19:17:55.973Z,52.35
2023-01-13T19:20:23.450Z,54.58
2023-01-13T19:22:54.586Z,51.65
2023-01-13T19:25:21.973Z,45.67
2023-01-13T19:27:48.890Z,41.28
2023-01-13T19:30:16.112Z,44.65
2023-01-13T19:32:43.142Z,48.90
2023-01-13T19:35:14.539Z,54.90
2023-01-13T19:37:43.635Z,59.42
2023-01-13T19:40:11.410Z,61.50
2023-01-13T19:42:56.707Z,51.08
2023-01-13T19:45:26.650Z,51.63
2023-01-13T19:47:55.026Z,49.22
2023-01-13T19:50:22.099Z,50.95
2023-01-13T19:52:48.996Z,47.15
2023-01-13T19:55:16.058Z,47.78
2023-01-13T19:57:43.982Z,49.17
2023-01-13T20:00:12.601Z,57.72
2023-01-13T20:02:46.086Z,87.40
2023-01-13T20:05:18.258Z,66.63
2023-01-13T20:07:45.575Z,54.83
2023-01-13T20:10:13.663Z,52.08
2023-01-13T20:12:42.399Z,55.92
2023-01-13T20:15:10.371Z,52.67
2023-01-13T20:17:39.062Z,48.33
2023-01-13T20:20:09.775Z,46.80
2023-01-13T20:22:41.373Z,42.70
2023-01-13T20:27:38.330Z,42.95
2023-01-13T20:30:09.681Z,42.50
2023-01-13T20:32:38.487Z,43.67
2023-01-13T20:35:07.363Z,44.60
2023-01-13T20:37:37.008Z,44.65
2023-01-13T20:40:05.791Z,60.92
2023-01-13T20:42:40.157Z,58.00
2023-01-13T20:45:07.715Z,55.30
2023-01-13T20:47:34.872Z,48.03
2023-01-13T20:50:02.093Z,48.22
2023-01-13T20:52:29.224Z,38.80
2023-01-13T20:54:56.333Z,35.03
2023-01-13T20:57:23.483Z,36.05
2023-01-13T20:59:51.310Z,53.15
2023-01-13T21:02:19.609Z,46.45
2023-01-13T21:04:46.658Z,33.97
2023-01-13T21:07:13.533Z,35.80
2023-01-13T21:09:40.567Z,33.35
2023-01-13T21:12:26.688Z,33.22
2023-01-13T21:15:12.219Z,32.33
2023-01-13T21:17:57.620Z,33.80
2023-01-13T21:20:24.466Z,36.33
2023-01-13T21:22:51.598Z,39.80
2023-01-13T21:25:19.227Z,44.55
2023-01-13T21:27:46.365Z,42.13
2023-01-13T21:30:15.142Z,44.15
2023-01-13T21:32:43.497Z,43.13
2023-01-13T21:35:11.378Z,41.25
2023-01-13T21:37:39.070Z,41.03
2023-01-13T21:40:08.691Z,41.42
2023-01-13T21:42:53.934Z,39.88
2023-01-13T21:45:39.310Z,40.90
2023-01-13T21:48:07.330Z,36.45
2023-01-13T21:50:34.461Z,37.00
2023-01-13T21:53:01.271Z,44.83
2023-01-13T21:55:31.461Z,38.53
2023-01-13T21:58:01.247Z,37.47
2023-01-13T22:00:31.425Z,38.00
2023-01-13T22:02:59.684Z,37.47
2023-01-13T22:05:26.901Z,40.13
2023-01-13T22:07:53.771Z,40.53
2023-01-13T22:10:23.008Z,39.83
2023-01-13T22:12:53.980Z,39.13
2023-01-13T22:15:21.187Z,38.10
2023-01-13T22:17:52.388Z,38.63
2023-01-13T22:20:20.051Z,38.28
2023-01-13T22:22:47.285Z,35.90
2023-01-13T22:25:15.782Z,37.28
2023-01-13T22:27:44.666Z,41.25
2023-01-13T22:30:18.325Z,43.78
2023-01-13T22:32:46.576Z,43.05
2023-01-13T22:35:15.155Z,46.50
2023-01-13T22:37:42.608Z,48.72
2023-01-13T22:40:12.501Z,42.65
2023-01-13T22:42:40.669Z,37.17
2023-01-13T22:45:11.308Z,35.03
2023-01-13T22:47:38.467Z,32.90
2023-01-13T22:50:06.509Z,32.72
2023-01-13T22:52:34.301Z,33.28
2023-01-13T22:55:01.127Z,34.97
2023-01-13T22:57:46.670Z,33.85
2023-01-13T23:00:15.131Z,30.83
2023-01-13T23:02:42.149Z,34.25
2023-01-13T23:05:09.135Z,33.33
2023-01-13T23:07:36.322Z,33.95
2023-01-13T23:10:04.113Z,34.97
2023-01-13T23:12:31.234Z,32.40
2023-01-13T23:14:58.034Z,33.17
2023-01-13T23:17:24.932Z,35.00
2023-01-13T23:19:51.707Z,34.00
2023-01-13T23:22:18.727Z,32.40
2023-01-13T23:24:45.984Z,35.95
2023-01-13T23:27:12.860Z,35.65
2023-01-13T23:29:39.869Z,40.50
2023-01-13T23:32:06.719Z,38.95
2023-01-13T23:34:33.553Z,35.03
2023-01-13T23:37:00.322Z,34.72
2023-01-13T23:39:27.162Z,36.22
2023-01-13T23:41:54.633Z,37.33
2023-01-13T23:44:21.474Z,37.00
2023-01-13T23:46:48.297Z,37.22
2023-01-13T23:49:15.341Z,38.50
2023-01-13T23:51:42.211Z,34.67
2023-01-13T23:54:09.072Z,34.42
2023-01-13T23:56:39.467Z,37.28
2023-01-13T23:59:06.849Z,34.97
